Time;durP1;ratioP1;P1;durP2;ratioP2;P2;SDS_P1;SDS_P2;PMS_P1;PMS_P2;Temp;Humidity;BMP_temperature;BMP_pressure;BME280_temperature;BME280_humidity;BME280_pressure;Samples;Min_cycle;Max_cycle;Signal;HPM_P1;HPM_P2
2022/09/07 00:01:02;;;;;;;11.07;5.90;;;;;;;18.22;95.82;101205.03;4950888;28;20028;-66
2022/09/07 00:03:28;;;;;;;9.27;6.22;;;;;;;18.17;96.08;101184.13;4950835;29;20494;-67
2022/09/07 00:05:53;;;;;;;10.30;5.28;;;;;;;18.05;95.43;101179.81;4950948;29;20042;-66
2022/09/07 00:08:21;;;;;;;8.68;4.45;;;;;;;17.98;94.88;101195.34;4950335;29;20117;-66
2022/09/07 00:10:58;;;;;;;8.60;4.85;;;;;;;17.96;94.56;101195.56;4950540;28;20078;-66
2022/09/07 00:13:26;;;;;;;5.28;4.10;;;;;;;17.97;94.92;101194.50;4932218;29;20032;-67
2022/09/07 00:15:51;;;;;;;8.85;5.75;;;;;;;17.96;94.77;101200.97;4932294;29;20086;-67
2022/09/07 00:18:17;;;;;;;9.75;4.45;;;;;;;17.94;94.91;101200.38;4932342;29;20102;-67
2022/09/07 00:20:43;;;;;;;7.93;5.00;;;;;;;17.93;95.37;101198.75;4932338;29;20039;-67
2022/09/07 00:23:08;;;;;;;7.75;5.10;;;;;;;17.89;96.23;101189.47;4950612;28;20371;-67
2022/09/07 00:25:38;;;;;;;10.40;5.75;;;;;;;17.84;96.27;101179.41;4953420;29;20042;-67
2022/09/07 00:28:06;;;;;;;9.13;5.65;;;;;;;17.76;96.08;101179.72;4954273;29;20077;-66
2022/09/07 00:30:33;;;;;;;9.38;5.55;;;;;;;17.71;96.45;101180.44;4954317;29;20446;-66
2022/09/07 00:32:59;;;;;;;8.10;5.07;;;;;;;17.71;96.57;101174.22;4954329;29;20114;-66
2022/09/07 00:35:25;;;;;;;9.55;5.75;;;;;;;17.64;96.70;101166.25;4954160;28;20479;-67
2022/09/07 00:37:51;;;;;;;11.73;5.22;;;;;;;17.63;96.76;101174.56;4954144;29;20035;-67
2022/09/07 00:40:16;;;;;;;10.07;5.40;;;;;;;17.53;97.29;101176.00;4954094;28;20070;-67
2022/09/07 00:42:41;;;;;;;10.20;6.10;;;;;;;17.52;97.29;101160.03;4954205;28;20027;-67
2022/09/07 00:45:18;;;;;;;10.05;5.30;;;;;;;17.45;97.57;101160.19;4953656;29;20039;-66
2022/09/07 00:48:06;;;;;;;12.90;6.47;;;;;;;17.42;97.60;101151.72;4953496;29;20057;-66
2022/09/07 00:50:51;;;;;;;10.80;5.30;;;;;;;17.39;97.51;101150.31;4953334;28;20115;-66
2022/09/07 00:53:29;;;;;;;8.80;4.63;;;;;;;17.34;97.42;101143.97;4953700;29;20031;-66
2022/09/07 00:55:58;;;;;;;7.65;4.70;;;;;;;17.23;97.99;101132.16;4953787;29;20041;-66
2022/09/07 00:58:24;;;;;;;9.75;5.10;;;;;;;17.19;98.12;101144.47;4953803;29;20038;-66
2022/09/07 01:00:50;;;;;;;11.25;5.05;;;;;;;17.17;98.03;101143.88;4953871;29;20024;-66
2022/09/07 01:03:18;;;;;;;8.50;4.90;;;;;;;17.16;97.90;101143.06;4953710;29;20517;-66
2022/09/07 01:05:54;;;;;;;7.65;4.47;;;;;;;17.15;98.13;101143.28;4953721;28;20035;-67
2022/09/07 01:08:20;;;;;;;10.23;4.93;;;;;;;17.08;98.11;101136.13;4953488;29;20058;-67
2022/09/07 01:10:46;;;;;;;7.55;4.57;;;;;;;17.08;98.13;101141.53;4953497;29;20105;-67
2022/09/07 01:13:11;;;;;;;8.18;4.57;;;;;;;16.98;98.69;101151.25;4953687;29;20951;-67
2022/09/07 01:15:56;;;;;;;10.60;4.78;;;;;;;16.82;99.73;101134.69;4953709;29;20065;-67
2022/09/07 01:18:56;;;;;;;9.07;3.92;;;;;;;16.70;100.00;101130.28;4953451;29;20027;-67
2022/09/07 01:21:32;;;;;;;9.35;4.35;;;;;;;16.64;100.00;101132.03;4953389;28;20035;-67
2022/09/07 01:24:27;;;;;;;9.98;4.63;;;;;;;16.68;100.00;101127.81;4953553;28;20027;-67
2022/09/07 01:27:32;;;;;;;7.65;5.13;;;;;;;16.70;100.00;101133.78;4953369;28;20027;-67
2022/09/07 01:30:22;;;;;;;7.72;4.30;;;;;;;16.57;100.00;101134.81;4953238;29;20031;-67
2022/09/07 01:33:12;;;;;;;8.13;4.10;;;;;;;16.48;100.00;101146.97;4953253;29;20064;-67
2022/09/07 01:36:27;;;;;;;8.80;4.78;;;;;;;16.42;100.00;101148.69;4953222;28;20023;-67
2022/09/07 01:39:00;;;;;;;7.53;4.30;;;;;;;16.37;100.00;101153.94;4919404;29;20051;-67
2022/09/07 01:41:29;;;;;;;7.47;4.80;;;;;;;16.38;100.00;101149.38;4953134;28;20110;-67
2022/09/07 01:43:57;;;;;;;9.25;3.72;;;;;;;16.36;100.00;101154.16;4934799;29;20031;-67
2022/09/07 01:46:27;;;;;;;7.32;4.43;;;;;;;16.36;100.00;101154.97;4934334;29;20084;-67
2022/09/07 01:48:59;;;;;;;6.53;3.38;;;;;;;16.34;100.00;101153.56;4952784;29;20027;-66
2022/09/07 01:51:28;;;;;;;;;;;;;;;16.37;100.00;101147.72;4953244;29;20024;-66
2022/09/07 01:53:57;;;;;;;6.78;4.45;;;;;;;16.26;100.00;101135.84;4952590;29;19965;-66
2022/09/07 01:56:32;;;;;;;7.05;3.65;;;;;;;16.26;100.00;101140.44;4952902;29;20031;-66
2022/09/07 01:59:05;;;;;;;7.63;3.75;;;;;;;16.27;100.00;101128.59;4952719;29;20027;-66
2022/09/07 02:01:45;;;;;;;6.45;3.83;;;;;;;16.22;100.00;101123.91;4952696;29;20027;-66
2022/09/07 02:04:23;;;;;;;6.32;3.83;;;;;;;16.34;100.00;101137.41;4952600;28;20027;-67
2022/09/07 02:06:59;;;;;;;6.88;3.75;;;;;;;16.37;100.00;101148.56;4952506;29;20142;-67
2022/09/07 02:09:36;;;;;;;5.20;3.15;;;;;;;16.38;100.00;101133.22;4952139;29;20055;-67
2022/09/07 02:12:09;;;;;;;6.35;4.05;;;;;;;16.41;100.00;101135.47;4952413;28;20894;-67
2022/09/07 02:14:39;;;;;;;7.40;3.85;;;;;;;16.44;100.00;101124.22;4952556;29;20065;-67
2022/09/07 02:17:32;;;;;;;8.25;4.57;;;;;;;16.44;100.00;101140.38;4952637;29;20418;-67
2022/09/07 02:20:06;;;;;;;4.97;3.40;;;;;;;16.45;100.00;101150.09;4952462;28;20098;-67
2022/09/07 02:22:36;;;;;;;5.28;2.95;;;;;;;16.43;100.00;101149.53;4952346;29;20034;-67
2022/09/07 02:25:04;;;;;;;5.88;3.58;;;;;;;16.42;100.00;101155.94;4952290;28;20524;-67
2022/09/07 02:27:40;;;;;;;5.72;3.50;;;;;;;16.38;100.00;101150.19;4952307;29;20215;-67
2022/09/07 02:30:06;;;;;;;5.55;3.30;;;;;;;16.36;100.00;101138.00;4952231;28;20098;-67
2022/09/07 02:32:31;;;;;;;6.15;3.92;;;;;;;16.35;100.00;101139.91;4934967;29;20039;-67
2022/09/07 02:34:57;;;;;;;5.88;3.50;;;;;;;16.26;100.00;101121.59;4952063;28;20046;-67
2022/09/07 02:37:23;;;;;;;4.95;3.75;;;;;;;16.25;100.00;101122.66;4952000;29;20063;-67
2022/09/07 02:39:48;;;;;;;7.40;3.55;;;;;;;16.22;100.00;101123.91;4952165;29;20117;-67
2022/09/07 02:42:13;;;;;;;7.03;4.47;;;;;;;16.21;100.00;101133.03;4951650;29;20062;-67
2022/09/07 02:44:41;;;;;;;3.95;3.25;;;;;;;16.19;100.00;101129.72;4951738;29;20043;-67
2022/09/07 02:47:25;;;;;;;6.35;4.00;;;;;;;16.20;100.00;101134.91;4951065;28;20039;-67
2022/09/07 02:50:29;;;;;;;4.07;3.30;;;;;;;16.26;100.00;101154.69;4951533;28;20041;-67
2022/09/07 02:53:21;;;;;;;7.03;3.80;;;;;;;16.27;100.00;101137.53;4951618;29;20026;-67
2022/09/07 02:56:08;;;;;;;;;;;;;;;16.31;100.00;101130.63;4951968;29;20804;-67
2022/09/07 02:58:40;;;;;;;6.95;4.38;;;;;;;16.27;100.00;101129.44;4951946;29;19952;-67
2022/09/07 03:01:30;;;;;;;6.30;4.25;;;;;;;16.28;100.00;101120.31;4951816;29;20030;-67
2022/09/07 03:04:10;;;;;;;7.90;4.57;;;;;;;16.29;100.00;101124.63;4951610;29;20031;-67
2022/09/07 03:06:45;;;;;;;12.35;4.53;;;;;;;16.27;100.00;101129.44;4950997;29;20039;-67
2022/09/07 03:09:15;;;;;;;9.07;5.45;;;;;;;16.25;100.00;101122.66;4950816;29;20143;-67
2022/09/07 03:11:41;;;;;;;7.85;4.30;;;;;;;16.30;100.00;101126.28;4951328;29;20038;-67
2022/09/07 03:14:18;;;;;;;6.57;4.22;;;;;;;16.30;100.00;101122.78;4951391;29;20031;-67
2022/09/07 03:16:45;;;;;;;5.68;4.10;;;;;;;16.30;100.00;101118.22;4951403;28;20363;-67
2022/09/07 03:19:10;;;;;;;8.38;5.15;;;;;;;16.27;100.00;101118.69;4951095;28;20386;-67
2022/09/07 03:21:35;;;;;;;12.65;4.80;;;;;;;16.25;100.00;101107.31;4951227;29;20118;-67
2022/09/07 03:24:01;;;;;;;4.97;3.95;;;;;;;16.25;100.00;101107.31;4951226;28;20041;-67
2022/09/07 03:26:27;;;;;;;10.18;4.68;;;;;;;16.24;100.00;101113.72;4951313;29;20920;-67
2022/09/07 03:28:52;;;;;;;12.38;5.85;;;;;;;16.24;100.00;101112.91;4951190;29;20032;-66
2022/09/07 03:31:18;;;;;;;9.38;5.15;;;;;;;16.22;100.00;101099.69;4951229;29;20062;-66
2022/09/07 03:33:44;;;;;;;7.32;4.60;;;;;;;16.21;100.00;101112.31;4951152;29;20035;-66
2022/09/07 03:36:09;;;;;;;8.13;4.78;;;;;;;16.20;100.00;101124.13;4951075;29;20082;-66
2022/09/07 03:38:34;;;;;;;8.82;4.70;;;;;;;16.17;100.00;101121.91;4950976;29;20031;-66
2022/09/07 03:41:02;;;;;;;13.75;6.00;;;;;;;16.15;100.00;101115.94;4951030;29;20073;-67
2022/09/07 03:43:28;;;;;;;8.35;5.13;;;;;;;16.10;100.00;101115.78;4950980;28;20035;-67
2022/09/07 03:46:01;;;;;;;6.15;4.68;;;;;;;16.07;100.00;101110.84;4951219;28;20078;-67
2022/09/07 03:48:30;;;;;;;8.30;5.22;;;;;;;16.05;100.00;101107.56;4932414;29;20035;-67
2022/09/07 03:51:00;;;;;;;8.30;5.05;;;;;;;16.01;100.00;101109.09;4951065;29;20106;-67
2022/09/07 03:53:26;;;;;;;6.82;4.65;;;;;;;15.97;100.00;101124.84;4950745;29;20027;-67
2022/09/07 03:56:00;;;;;;;10.32;5.43;;;;;;;15.93;100.00;101120.16;4950870;29;20483;-67
2022/09/07 03:58:28;;;;;;;11.75;5.32;;;;;;;15.93;100.00;101128.22;4950752;28;20027;-67
2022/09/07 04:00:53;;;;;;;9.50;5.20;;;;;;;15.92;100.00;101135.44;4954182;29;20031;-67
2022/09/07 04:03:19;;;;;;;7.93;5.47;;;;;;;15.91;100.00;101120.38;4936452;29;20091;-67
2022/09/07 04:05:44;;;;;;;8.20;5.32;;;;;;;15.91;100.00;101120.38;4936592;29;20034;-67
2022/09/07 04:08:10;;;;;;;11.95;6.15;;;;;;;15.95;100.00;101124.22;4936206;29;20039;-67
2022/09/07 04:10:39;;;;;;;10.02;6.35;;;;;;;15.97;100.00;101107.88;4936326;29;20130;-67
2022/09/07 04:13:06;;;;;;;7.35;5.05;;;;;;;15.96;100.00;101117.81;4936388;29;20038;-67
2022/09/07 04:15:31;;;;;;;9.02;5.20;;;;;;;15.96;100.00;101111.63;4954590;29;20078;-67
2022/09/07 04:17:57;;;;;;;9.75;6.20;;;;;;;16.00;100.00;101108.25;4937282;29;20030;-67
2022/09/07 04:20:22;;;;;;;9.10;5.35;;;;;;;16.01;100.00;101109.09;4954583;29;20031;-67
2022/09/07 04:22:48;;;;;;;10.10;6.00;;;;;;;15.99;100.00;101087.78;4954488;29;20047;-67
2022/09/07 04:25:13;;;;;;;11.77;5.95;;;;;;;15.97;100.00;101081.78;4954514;29;20070;-67
2022/09/07 04:27:39;;;;;;;11.65;6.03;;;;;;;15.96;100.00;101077.47;4954495;29;20035;-67
2022/09/07 04:30:05;;;;;;;11.20;5.95;;;;;;;15.95;100.00;101081.19;4937022;28;20035;-67
2022/09/07 04:32:30;;;;;;;10.00;5.32;;;;;;;15.93;100.00;101074.44;4954443;29;20044;-67
2022/09/07 04:34:56;;;;;;;10.13;6.30;;;;;;;15.94;100.00;101076.06;4954288;29;20479;-67
2022/09/07 04:37:21;;;;;;;12.52;7.05;;;;;;;15.91;100.00;101077.34;4954478;28;20050;-67
2022/09/07 04:39:46;;;;;;;9.52;6.43;;;;;;;15.93;100.00;101086.00;4954110;29;20039;-67
2022/09/07 04:42:12;;;;;;;11.77;7.93;;;;;;;15.92;100.00;101102.34;4954145;28;20036;-67
2022/09/07 04:44:37;;;;;;;12.73;7.65;;;;;;;15.91;100.00;101100.72;4953987;29;20038;-67
2022/09/07 04:47:02;;;;;;;12.90;7.60;;;;;;;15.92;100.00;101100.47;4954101;29;20035;-67
2022/09/07 04:49:28;;;;;;;12.23;7.10;;;;;;;15.93;100.00;101088.69;4953816;29;20024;-67
2022/09/07 04:51:53;;;;;;;13.15;7.15;;;;;;;15.97;100.00;101091.75;4953810;28;20053;-67
2022/09/07 04:54:18;;;;;;;12.13;7.50;;;;;;;15.97;100.00;101094.44;4953682;28;20074;-67
2022/09/07 04:56:44;;;;;;;12.15;7.38;;;;;;;16.02;100.00;101096.44;4953507;29;20086;-67
2022/09/07 04:59:09;;;;;;;12.25;6.45;;;;;;;16.05;100.00;101110.25;4953385;29;20063;-67
2022/09/07 05:01:35;;;;;;;19.20;7.43;;;;;;;16.06;100.00;101111.06;4953778;29;20031;-67
2022/09/07 05:04:02;;;;;;;14.18;7.15;;;;;;;16.06;100.00;101114.59;4953638;29;20031;-67
2022/09/07 05:06:28;;;;;;;14.02;7.38;;;;;;;16.12;100.00;101118.25;4953686;28;20034;-67
2022/09/07 05:08:54;;;;;;;13.05;7.53;;;;;;;16.14;100.00;101111.59;4953355;29;20051;-67
2022/09/07 05:11:21;;;;;;;11.13;7.00;;;;;;;16.16;100.00;101111.34;4953155;28;20123;-66
2022/09/07 05:13:47;;;;;;;12.68;7.38;;;;;;;16.15;100.00;101107.84;4953276;28;20509;-67
2022/09/07 05:16:18;;;;;;;10.63;6.35;;;;;;;16.20;100.00;101101.78;4936161;29;20069;-67
2022/09/07 05:18:48;;;;;;;13.35;8.13;;;;;;;16.21;100.00;101101.53;4953257;29;20031;-67
2022/09/07 05:21:18;;;;;;;11.48;6.30;;;;;;;16.25;100.00;101098.44;4953374;29;20032;-67
2022/09/07 05:23:44;;;;;;;8.85;6.53;;;;;;;16.27;100.00;101102.53;4953372;29;20097;-67
2022/09/07 05:26:11;;;;;;;14.13;7.72;;;;;;;16.28;100.00;101104.16;4953238;29;20122;-67
2022/09/07 05:28:37;;;;;;;12.30;7.97;;;;;;;16.29;100.00;101103.09;4953237;28;20031;-67
2022/09/07 05:31:07;;;;;;;13.90;8.23;;;;;;;16.31;100.00;101111.78;4953115;29;20059;-67
2022/09/07 05:33:34;;;;;;;12.85;7.38;;;;;;;16.33;100.00;101114.25;4953130;29;20030;-67
2022/09/07 05:36:00;;;;;;;13.02;7.63;;;;;;;16.33;100.00;101115.06;4953027;29;20487;-67
2022/09/07 05:38:27;;;;;;;12.77;7.60;;;;;;;16.29;100.00;101108.47;4953054;29;20031;-67
2022/09/07 05:40:52;;;;;;;13.27;7.78;;;;;;;16.40;100.00;101115.81;4952836;28;20380;-67
2022/09/07 05:43:18;;;;;;;15.93;8.40;;;;;;;16.43;100.00;101111.84;4952989;28;20030;-66
2022/09/07 05:45:43;;;;;;;13.80;7.80;;;;;;;16.46;100.00;101111.38;4952862;29;20397;-66
2022/09/07 05:48:09;;;;;;;11.93;7.50;;;;;;;16.50;100.00;101115.22;4952736;29;20081;-67
2022/09/07 05:50:34;;;;;;;16.13;7.93;;;;;;;16.52;100.00;101109.63;4952659;29;20062;-67
2022/09/07 05:53:00;;;;;;;16.27;8.80;;;;;;;16.54;100.00;101107.53;4952738;28;20126;-67
2022/09/07 05:55:26;;;;;;;14.70;9.43;;;;;;;16.54;100.00;101113.72;4952773;29;20043;-67
2022/09/07 05:57:52;;;;;;;14.15;8.60;;;;;;;16.59;100.00;101107.66;4952406;29;20039;-67
2022/09/07 06:00:20;;;;;;;15.00;8.43;;;;;;;16.62;100.00;101115.28;4952403;28;20498;-67
2022/09/07 06:02:46;;;;;;;14.15;8.13;;;;;;;16.65;100.00;101118.31;4952604;29;20035;-67
2022/09/07 06:05:11;;;;;;;14.25;9.30;;;;;;;16.68;100.00;101114.34;4952546;28;20486;-67
2022/09/07 06:07:37;;;;;;;15.90;9.10;;;;;;;16.70;100.00;101125.72;4952462;29;20062;-67
2022/09/07 06:10:02;;;;;;;17.38;8.80;;;;;;;16.73;100.00;101121.75;4951937;29;20130;-67
2022/09/07 06:12:28;;;;;;;12.45;8.20;;;;;;;16.73;100.00;101114.47;4952293;29;20054;-67
2022/09/07 06:14:53;;;;;;;15.73;9.95;;;;;;;16.74;100.00;101121.53;4952369;29;20036;-67
2022/09/07 06:17:18;;;;;;;17.42;10.07;;;;;;;16.75;100.00;101123.16;4952405;28;20043;-67
2022/09/07 06:19:43;;;;;;;15.68;9.82;;;;;;;16.76;100.00;101119.41;4952406;29;20063;-67
2022/09/07 06:22:09;;;;;;;15.82;10.30;;;;;;;16.75;100.00;101115.06;4951527;28;20039;-67
2022/09/07 06:24:34;;;;;;;17.52;10.80;;;;;;;16.76;100.00;101124.78;4952189;29;20094;-67
2022/09/07 06:26:59;;;;;;;16.73;10.13;;;;;;;16.72;100.00;101131.69;4952096;28;20482;-67
2022/09/07 06:29:25;;;;;;;18.20;10.00;;;;;;;16.71;100.00;101132.72;4952049;28;20038;-67
2022/09/07 06:31:50;;;;;;;18.48;11.35;;;;;;;16.69;100.00;101132.16;4951818;29;20037;-67
2022/09/07 06:34:15;;;;;;;18.27;11.38;;;;;;;16.67;100.00;101136.13;4951777;29;20041;-67
2022/09/07 06:36:41;;;;;;;17.80;10.88;;;;;;;16.64;100.00;101143.63;4951732;29;20038;-66
2022/09/07 06:39:06;;;;;;;17.73;10.63;;;;;;;16.62;100.00;101136.81;4951552;29;20680;-67
2022/09/07 06:41:31;;;;;;;16.92;10.07;;;;;;;16.62;100.00;101143.03;4951665;29;20086;-66
2022/09/07 06:43:57;;;;;;;19.02;10.25;;;;;;;16.64;100.00;101143.63;4934405;29;20110;-67
2022/09/07 06:46:23;;;;;;;18.15;12.95;;;;;;;16.69;100.00;101144.78;4951782;29;20027;-68
2022/09/07 06:48:52;;;;;;;18.33;10.57;;;;;;;16.72;100.00;101147.03;4951545;28;20039;-64
2022/09/07 06:51:21;;;;;;;21.38;11.18;;;;;;;16.75;100.00;101160.06;4951503;28;20039;-64
2022/09/07 06:53:47;;;;;;;19.45;11.68;;;;;;;16.77;100.00;101149.88;4951190;29;20170;-64
2022/09/07 06:56:15;;;;;;;19.42;11.60;;;;;;;16.78;100.00;101143.44;4951667;29;20063;-63
2022/09/07 06:58:40;;;;;;;19.75;12.07;;;;;;;16.80;100.00;101154.81;4951166;29;20038;-63
2022/09/07 07:01:19;;;;;;;17.13;11.80;;;;;;;16.83;100.00;101151.66;4951219;29;20039;-63
2022/09/07 07:03:44;;;;;;;18.30;12.63;;;;;;;16.89;100.00;101156.13;4951203;29;20976;-63
2022/09/07 07:06:11;;;;;;;19.92;13.65;;;;;;;17.05;100.00;101168.09;4934090;29;20058;-63
2022/09/07 07:08:36;;;;;;;19.10;12.48;;;;;;;17.18;100.00;101157.09;4951263;29;20043;-63
2022/09/07 07:11:06;;;;;;;22.52;13.70;;;;;;;17.26;100.00;101162.13;4936045;29;20703;-64
2022/09/07 07:13:33;;;;;;;21.20;14.20;;;;;;;17.33;100.00;101161.22;4932954;29;20047;-64
2022/09/07 07:16:07;;;;;;;23.67;15.60;;;;;;;17.33;100.00;101155.84;4951374;29;20502;-63
2022/09/07 07:18:33;;;;;;;21.63;12.77;;;;;;;17.31;100.00;101164.97;4951161;29;20024;-63
2022/09/07 07:21:04;;;;;;;23.35;13.68;;;;;;;17.29;100.00;101158.16;4951270;28;20090;-63
2022/09/07 07:23:29;;;;;;;22.43;13.80;;;;;;;17.26;100.00;101156.75;4951305;28;20038;-63
2022/09/07 07:25:55;;;;;;;28.50;16.48;;;;;;;17.26;100.00;101156.75;4951225;29;20027;-63
2022/09/07 07:28:23;;;;;;;24.08;15.32;;;;;;;17.28;100.00;101160.03;4932520;29;20555;-63
2022/09/07 07:30:59;;;;;;;24.95;14.95;;;;;;;17.35;100.00;101168.03;4932638;29;20043;-63
2022/09/07 07:36:31;;;;;;;24.40;15.10;;;;;;;17.61;100.00;101155.13;4951321;29;20149;-63
2022/09/07 07:38:57;;;;;;;26.58;17.67;;;;;;;17.73;100.00;101155.91;4951127;29;20386;-63
2022/09/07 07:41:26;;;;;;;27.30;17.55;;;;;;;17.83;100.00;101163.44;4951028;29;20036;-63
2022/09/07 07:43:55;;;;;;;31.58;18.92;;;;;;;17.88;100.00;101169.78;4950862;29;20035;-63
2022/09/07 07:46:22;;;;;;;30.80;19.02;;;;;;;17.96;100.00;101168.59;4951025;29;20027;-63
2022/09/07 07:48:48;;;;;;;31.45;20.55;;;;;;;17.98;100.00;101171.88;4950825;28;20039;-63
2022/09/07 07:51:13;;;;;;;35.17;21.75;;;;;;;18.06;100.00;101178.78;4950675;29;20050;-63
2022/09/07 07:53:40;;;;;;;33.22;22.23;;;;;;;18.14;100.00;101175.72;4950377;29;20066;-64
2022/09/07 07:56:07;;;;;;;34.90;21.90;;;;;;;18.22;100.00;101172.63;4950720;29;20027;-64
2022/09/07 07:58:35;;;;;;;29.90;20.48;;;;;;;18.37;100.00;101181.03;4950728;29;20034;-64
2022/09/07 08:01:12;;;;;;;32.45;22.63;;;;;;;18.53;100.00;101184.84;4950276;28;20027;-64
2022/09/07 08:03:39;;;;;;;28.77;20.85;;;;;;;18.65;100.00;101179.38;4950220;29;20045;-64
2022/09/07 08:06:10;;;;;;;25.75;17.63;;;;;;;18.77;98.93;101188.28;4950497;28;20087;-64
2022/09/07 08:08:36;;;;;;;28.05;20.23;;;;;;;18.85;98.90;101180.84;4933144;29;20490;-63
2022/09/07 08:11:07;;;;;;;28.42;17.60;;;;;;;18.91;98.38;101182.56;4950484;28;20133;-63
2022/09/07 08:13:33;;;;;;;29.00;18.65;;;;;;;18.94;97.03;101191.03;4950491;29;20122;-63
2022/09/07 08:15:59;;;;;;;26.23;17.15;;;;;;;19.05;97.92;101192.84;4950493;29;20027;-63
2022/09/07 08:18:25;;;;;;;27.20;16.77;;;;;;;19.07;95.14;101197.97;4950685;29;20573;-63
2022/09/07 08:20:50;;;;;;;24.45;17.00;;;;;;;18.99;96.03;101206.50;4950768;29;20043;-63
2022/09/07 08:23:16;;;;;;;27.00;19.92;;;;;;;18.86;96.41;101193.28;4950526;29;20039;-63
2022/09/07 08:25:52;;;;;;;34.03;20.10;;;;;;;19.30;97.30;101201.59;4950807;28;20032;-63
2022/09/07 08:28:18;;;;;;;30.83;20.50;;;;;;;20.46;92.32;101200.75;4930350;29;20447;-63
2022/09/07 08:30:44;;;;;;;28.63;18.23;;;;;;;21.17;86.50;101201.50;4950087;29;20027;-63
2022/09/07 08:33:09;;;;;;;30.70;17.13;;;;;;;21.44;84.29;101201.44;4950424;29;20047;-63
2022/09/07 08:35:34;;;;;;;25.85;15.27;;;;;;;21.11;83.28;101207.13;4931701;29;20032;-63
2022/09/07 08:38:00;;;;;;;22.42;15.50;;;;;;;20.76;85.59;101206.53;4931953;29;20031;-63
2022/09/07 08:40:25;;;;;;;23.92;15.75;;;;;;;20.49;85.69;101202.97;4950537;29;20027;-63
2022/09/07 08:43:14;;;;;;;22.27;15.13;;;;;;;20.25;87.96;101211.38;4950325;29;20039;-63
2022/09/07 08:45:50;;;;;;;22.65;14.85;;;;;;;20.09;87.56;101210.34;4951726;28;20035;-63
2022/09/07 08:48:22;;;;;;;22.90;15.75;;;;;;;20.01;88.26;101210.78;4950676;29;20024;-63
2022/09/07 08:50:50;;;;;;;22.90;14.23;;;;;;;20.00;87.31;101222.69;4935561;29;20094;-63
2022/09/07 08:53:18;;;;;;;21.58;13.73;;;;;;;19.96;88.13;101218.84;4935672;29;20043;-64
2022/09/07 08:56:36;;;;;;;20.30;14.13;;;;;;;19.99;88.16;101222.94;4953620;29;20019;-63
2022/09/07 08:59:29;;;;;;;18.55;12.52;;;;;;;19.98;87.38;101214.00;4921778;29;20106;-63
2022/09/07 09:01:54;;;;;;;21.70;12.85;;;;;;;19.99;87.40;101209.38;4953578;29;20035;-63
2022/09/07 09:04:26;;;;;;;19.35;12.35;;;;;;;20.13;87.11;101216.09;4953451;28;20031;-64
2022/09/07 09:07:04;;;;;;;26.52;14.07;;;;;;;20.29;87.64;101219.81;4953241;28;20164;-63
2022/09/07 09:09:42;;;;;;;20.45;12.88;;;;;;;20.41;87.51;101222.38;4951611;29;20055;-63
2022/09/07 09:12:19;;;;;;;22.58;14.05;;;;;;;20.52;86.38;101221.44;4935097;29;20027;-63
2022/09/07 09:15:03;;;;;;;19.35;13.02;;;;;;;20.58;84.43;101223.97;4935262;29;20074;-63
2022/09/07 09:17:42;;;;;;;17.63;11.23;;;;;;;20.51;83.74;101222.50;4935103;29;20031;-63
2022/09/07 09:20:27;;;;;;;19.77;11.25;;;;;;;20.61;85.45;101216.41;4935128;29;20119;-63
2022/09/07 09:23:09;;;;;;;19.63;12.13;;;;;;;20.73;85.61;101217.09;4953351;28;20027;-63
2022/09/07 09:25:38;;;;;;;19.23;11.98;;;;;;;20.77;84.33;101215.47;4953403;29;20419;-63
2022/09/07 09:28:03;;;;;;;18.52;11.40;;;;;;;20.84;83.46;101209.88;4953245;29;20949;-64
2022/09/07 09:30:30;;;;;;;19.45;11.73;;;;;;;20.85;81.00;101225.06;4943523;29;20155;-64
2022/09/07 09:33:15;;;;;;;15.85;9.00;;;;;;;20.75;80.83;101221.19;4942160;29;20050;-64
2022/09/07 09:35:42;;;;;;;17.45;9.70;;;;;;;20.68;81.15;101225.97;4934898;29;20034;-64
2022/09/07 09:38:35;;;;;;;18.00;9.68;;;;;;;20.69;81.39;101219.47;4934418;29;20114;-64
2022/09/07 09:41:36;;;;;;;17.63;10.10;;;;;;;20.74;81.72;101216.81;4952895;29;20050;-64
2022/09/07 09:44:02;;;;;;;16.45;9.15;;;;;;;20.90;82.07;101220.50;4928260;29;20078;-64
2022/09/07 09:46:31;;;;;;;17.77;9.73;;;;;;;21.08;81.15;101221.19;4953015;28;20031;-64
2022/09/07 09:49:00;;;;;;;17.35;9.35;;;;;;;21.07;78.74;101217.69;4952785;28;20039;-64
2022/09/07 09:51:31;;;;;;;19.73;10.02;;;;;;;21.17;79.86;101217.78;4952981;29;20121;-64
2022/09/07 09:54:04;;;;;;;17.13;7.82;;;;;;;21.30;78.06;101212.97;4953048;29;20457;-64
2022/09/07 09:56:42;;;;;;;15.35;8.77;;;;;;;21.42;78.38;101219.06;4951721;28;20122;-64
2022/09/07 09:59:16;;;;;;;15.18;9.05;;;;;;;21.40;77.48;101216.59;4952441;29;20089;-64
2022/09/07 10:01:42;;;;;;;15.73;8.02;;;;;;;21.51;78.15;101205.81;4952734;29;20066;-65
2022/09/07 10:04:19;;;;;;;13.13;7.03;;;;;;;21.81;77.86;101214.16;4952858;29;20042;-64
2022/09/07 10:06:50;;;;;;;13.80;8.63;;;;;;;22.09;76.59;101206.72;4952849;28;20058;-64
2022/09/07 10:09:19;;;;;;;14.00;7.15;;;;;;;22.35;76.25;101198.66;4952177;29;20114;-64
2022/09/07 10:11:47;;;;;;;12.90;7.45;;;;;;;22.43;72.81;101207.13;4952477;29;20027;-64
2022/09/07 10:14:20;;;;;;;10.82;6.93;;;;;;;22.43;71.33;101212.56;4952566;29;20545;-64
2022/09/07 10:16:45;;;;;;;9.50;6.15;;;;;;;22.24;70.18;101205.97;4952535;29;20394;-64
2022/09/07 10:19:36;;;;;;;13.90;7.50;;;;;;;22.27;72.36;101216.34;4952522;29;20039;-65
2022/09/07 10:22:18;;;;;;;10.25;6.50;;;;;;;22.21;71.26;101199.16;4942850;29;20106;-64
2022/09/07 10:24:43;;;;;;;11.02;6.22;;;;;;;22.22;69.78;101200.00;4952474;29;20036;-64
2022/09/07 10:27:27;;;;;;;11.45;6.75;;;;;;;22.20;72.15;101208.41;4952164;29;20038;-64
2022/09/07 10:29:53;;;;;;;11.45;6.90;;;;;;;22.19;70.97;101198.63;4952124;29;20035;-64
2022/09/07 10:32:27;;;;;;;13.60;6.97;;;;;;;22.23;70.59;101204.34;4952201;29;20426;-64
2022/09/07 10:35:24;;;;;;;10.10;6.45;;;;;;;22.39;70.48;101195.16;4952233;29;20442;-64
2022/09/07 10:38:17;;;;;;;12.23;6.43;;;;;;;22.54;69.12;101199.81;4951978;29;20030;-65
2022/09/07 10:41:00;;;;;;;13.70;5.93;;;;;;;22.63;68.89;101187.31;4951933;29;20494;-70
2022/09/07 10:43:49;;;;;;;14.38;7.43;;;;;;;22.84;68.07;101190.88;4952228;28;20081;-64
2022/09/07 10:46:44;;;;;;;8.35;5.20;;;;;;;22.97;67.69;101190.38;4952128;29;20039;-64
2022/09/07 10:49:19;;;;;;;10.65;4.72;;;;;;;23.09;68.86;101186.59;4950315;29;20046;-64
2022/09/07 10:51:56;;;;;;;10.48;6.30;;;;;;;23.18;66.89;101179.50;4933302;29;20110;-64
2022/09/07 10:54:33;;;;;;;11.05;5.00;;;;;;;23.18;66.00;101182.22;4933402;29;20031;-68
2022/09/07 10:57:04;;;;;;;9.25;4.32;;;;;;;23.28;66.75;101181.41;4933402;29;20044;-64
2022/09/07 11:00:00;;;;;;;5.78;3.70;;;;;;;23.31;64.78;101183.56;4932880;29;20023;-64
2022/09/07 11:03:10;;;;;;;13.75;5.10;;;;;;;23.47;67.66;101179.72;4943671;29;20047;-64
2022/09/07 11:06:07;;;;;;;9.75;5.43;;;;;;;23.66;65.86;101170.97;4951218;29;20058;-65
2022/09/07 11:08:51;;;;;;;9.52;4.63;;;;;;;23.58;65.28;101177.84;4950492;28;20050;-64
2022/09/07 11:11:26;;;;;;;6.88;3.47;;;;;;;23.66;65.05;101182.72;4951239;29;20130;-64
2022/09/07 11:13:56;;;;;;;9.02;3.65;;;;;;;23.68;62.57;101175.06;4950988;28;20031;-64
2022/09/07 11:16:27;;;;;;;9.23;2.92;;;;;;;23.55;64.15;101179.19;4951165;28;20597;-64
2022/09/07 11:18:57;;;;;;;;;;;;;;;23.46;65.23;101178.13;4951569;29;20489;-64
2022/09/07 11:21:27;;;;;;;5.65;2.72;;;;;;;23.23;63.48;101173.25;4951192;29;19914;-64
2022/09/07 11:24:02;;;;;;;11.80;3.65;;;;;;;23.08;63.85;101168.63;4951273;29;20031;-65
2022/09/07 11:26:27;;;;;;;5.15;3.55;;;;;;;23.10;63.31;101172.69;4951290;29;20079;-64
2022/09/07 11:29:25;;;;;;;8.87;2.63;;;;;;;23.36;63.36;101162.59;4951009;29;20479;-64
2022/09/07 11:31:54;;;;;;;8.07;2.67;;;;;;;23.74;60.73;101168.56;4908489;29;20275;-65
2022/09/07 11:34:38;;;;;;;6.40;2.33;;;;;;;23.80;61.24;101169.34;4951077;29;20031;-65
2022/09/07 11:37:22;;;;;;;3.92;2.33;;;;;;;23.64;60.63;101165.81;4951032;28;20031;-64